sensor_id;sensor_type;location;lat;lon;timestamp;temperature;humidity
6740;DHT22;3407;49.882;10.920;2023-02-27T00:00:53;-1.00;1.00
6740;DHT22;3407;49.882;10.920;2023-02-27T00:05:49;-0.90;55.20
6740;DHT22;3407;49.882;10.920;2023-02-27T00:10:44;-0.90;1.00
6740;DHT22;3407;49.882;10.920;2023-02-27T00:15:40;-1.00;1.00
6740;DHT22;3407;49.882;10.920;2023-02-27T00:20:35;-1.00;1.00
6740;DHT22;3407;49.882;10.920;2023-02-27T00:25:33;-1.10;1.00
6740;DHT22;3407;49.882;10.920;2023-02-27T00:30:28;-1.20;99.90
6740;DHT22;3407;49.882;10.920;2023-02-27T00:35:24;-1.30;1.00
6740;DHT22;3407;49.882;10.920;2023-02-27T00:40:20;-1.40;99.90
6740;DHT22;3407;49.882;10.920;2023-02-27T00:45:15;-1.50;95.10
6740;DHT22;3407;49.882;10.920;2023-02-27T00:50:12;-1.60;99.90
6740;DHT22;3407;49.882;10.920;2023-02-27T00:55:09;-1.70;1.00
6740;DHT22;3407;49.882;10.920;2023-02-27T01:00:07;-1.80;1.00
6740;DHT22;3407;49.882;10.920;2023-02-27T01:05:03;-1.80;99.90
6740;DHT22;3407;49.882;10.920;2023-02-27T01:09:58;-1.90;1.00
6740;DHT22;3407;49.882;10.920;2023-02-27T01:14:55;-2.00;1.00
6740;DHT22;3407;49.882;10.920;2023-02-27T01:19:50;-2.00;99.90
6740;DHT22;3407;49.882;10.920;2023-02-27T01:24:46;-2.10;1.00
6740;DHT22;3407;49.882;10.920;2023-02-27T01:29:41;-2.10;1.00
6740;DHT22;3407;49.882;10.920;2023-02-27T01:34:37;-2.30;1.00
6740;DHT22;3407;49.882;10.920;2023-02-27T01:39:32;-2.30;1.00
6740;DHT22;3407;49.882;10.920;2023-02-27T01:44:29;-2.40;15.30
6740;DHT22;3407;49.882;10.920;2023-02-27T01:49:34;-2.40;99.90
6740;DHT22;3407;49.882;10.920;2023-02-27T01:54:32;-2.10;99.90
6740;DHT22;3407;49.882;10.920;2023-02-27T01:59:29;-2.40;99.90
6740;DHT22;3407;49.882;10.920;2023-02-27T02:04:33;-2.40;99.90
6740;DHT22;3407;49.882;10.920;2023-02-27T02:09:31;-2.40;99.90
6740;DHT22;3407;49.882;10.920;2023-02-27T02:14:29;-2.50;99.90
6740;DHT22;3407;49.882;10.920;2023-02-27T02:46:02;-2.10;1.00
6740;DHT22;3407;49.882;10.920;2023-02-27T02:51:18;-2.10;99.90
6740;DHT22;3407;49.882;10.920;2023-02-27T03:01:23;-2.10;1.00
6740;DHT22;3407;49.882;10.920;2023-02-27T03:06:36;-2.20;99.90
6740;DHT22;3407;49.882;10.920;2023-02-27T03:11:36;-2.30;1.00
6740;DHT22;3407;49.882;10.920;2023-02-27T03:16:38;-2.30;1.00
6740;DHT22;3407;49.882;10.920;2023-02-27T03:21:40;-2.20;99.90
6740;DHT22;3407;49.882;10.920;2023-02-27T03:26:41;-2.20;1.00
6740;DHT22;3407;49.882;10.920;2023-02-27T03:31:53;-2.10;1.00
6740;DHT22;3407;49.882;10.920;2023-02-27T03:42:18;-2.20;1.00
6740;DHT22;3407;49.882;10.920;2023-02-27T03:47:16;-2.20;99.90
6740;DHT22;3407;49.882;10.920;2023-02-27T03:52:12;-2.30;99.90
6740;DHT22;3407;49.882;10.920;2023-02-27T03:57:07;-2.40;99.90
6740;DHT22;3407;49.882;10.920;2023-02-27T04:02:03;-2.50;1.00
6740;DHT22;3407;49.882;10.920;2023-02-27T04:07:28;-2.60;99.90
6740;DHT22;3407;49.882;10.920;2023-02-27T04:18:10;-2.80;99.90
6740;DHT22;3407;49.882;10.920;2023-02-27T04:29:15;-2.90;1.00
6740;DHT22;3407;49.882;10.920;2023-02-27T04:33:45;-3.00;1.00
6740;DHT22;3407;49.882;10.920;2023-02-27T04:39:04;-3.10;99.90
6740;DHT22;3407;49.882;10.920;2023-02-27T04:44:01;-3.00;1.00
6740;DHT22;3407;49.882;10.920;2023-02-27T04:49:02;-3.00;37.50
6740;DHT22;3407;49.882;10.920;2023-02-27T04:54:09;-3.00;99.90
6740;DHT22;3407;49.882;10.920;2023-02-27T04:59:33;-2.90;1.00
6740;DHT22;3407;49.882;10.920;2023-02-27T05:04:32;-2.80;1.00
6740;DHT22;3407;49.882;10.920;2023-02-27T05:09:39;-2.80;99.90
6740;DHT22;3407;49.882;10.920;2023-02-27T05:14:44;-2.80;1.00
6740;DHT22;3407;49.882;10.920;2023-02-27T05:19:44;-2.80;99.90
6740;DHT22;3407;49.882;10.920;2023-02-27T05:24:50;-2.90;1.00
6740;DHT22;3407;49.882;10.920;2023-02-27T05:35:31;-3.10;1.00
6740;DHT22;3407;49.882;10.920;2023-02-27T05:40:33;-3.20;99.90
6740;DHT22;3407;49.882;10.920;2023-02-27T05:45:32;-3.20;1.00
6740;DHT22;3407;49.882;10.920;2023-02-27T05:50:31;-3.30;13.10
6740;DHT22;3407;49.882;10.920;2023-02-27T05:55:38;-3.30;60.70
6740;DHT22;3407;49.882;10.920;2023-02-27T06:05:46;-3.30;99.90
6740;DHT22;3407;49.882;10.920;2023-02-27T06:10:41;-3.30;99.90
6740;DHT22;3407;49.882;10.920;2023-02-27T06:15:37;-3.40;99.90
6740;DHT22;3407;49.882;10.920;2023-02-27T06:20:33;-3.40;99.90
6740;DHT22;3407;49.882;10.920;2023-02-27T06:25:29;-3.30;99.90
6740;DHT22;3407;49.882;10.920;2023-02-27T06:30:24;-3.30;99.90
6740;DHT22;3407;49.882;10.920;2023-02-27T06:35:20;-3.20;1.00
6740;DHT22;3407;49.882;10.920;2023-02-27T06:40:16;-3.10;1.00
6740;DHT22;3407;49.882;10.920;2023-02-27T06:45:14;-2.90;1.00
6740;DHT22;3407;49.882;10.920;2023-02-27T06:50:12;-2.80;99.90
6740;DHT22;3407;49.882;10.920;2023-02-27T06:55:08;-2.70;99.90
6740;DHT22;3407;49.882;10.920;2023-02-27T07:00:04;-2.60;99.90
6740;DHT22;3407;49.882;10.920;2023-02-27T07:05:01;-2.40;99.90
6740;DHT22;3407;49.882;10.920;2023-02-27T07:09:56;-2.20;99.90
6740;DHT22;3407;49.882;10.920;2023-02-27T07:14:52;-2.00;1.00
6740;DHT22;3407;49.882;10.920;2023-02-27T07:19:47;-1.60;66.30
6740;DHT22;3407;49.882;10.920;2023-02-27T07:24:43;-1.30;99.90
6740;DHT22;3407;49.882;10.920;2023-02-27T07:29:38;-1.00;1.00
6740;DHT22;3407;49.882;10.920;2023-02-27T07:34:34;-0.60;1.00
6740;DHT22;3407;49.882;10.920;2023-02-27T07:39:29;-0.10;1.00
6740;DHT22;3407;49.882;10.920;2023-02-27T07:44:25;1.40;99.90
6740;DHT22;3407;49.882;10.920;2023-02-27T07:49:21;4.70;99.90
6740;DHT22;3407;49.882;10.920;2023-02-27T07:54:16;6.00;99.90
6740;DHT22;3407;49.882;10.920;2023-02-27T07:59:12;5.70;99.90
6740;DHT22;3407;49.882;10.920;2023-02-27T08:04:07;7.60;99.90
6740;DHT22;3407;49.882;10.920;2023-02-27T08:09:03;8.00;99.90
6740;DHT22;3407;49.882;10.920;2023-02-27T08:13:59;8.30;99.90
6740;DHT22;3407;49.882;10.920;2023-02-27T08:18:55;9.00;99.90
6740;DHT22;3407;49.882;10.920;2023-02-27T08:23:51;9.60;99.90
6740;DHT22;3407;49.882;10.920;2023-02-27T08:28:46;10.30;99.90
6740;DHT22;3407;49.882;10.920;2023-02-27T08:33:42;9.60;99.90
6740;DHT22;3407;49.882;10.920;2023-02-27T08:38:38;9.80;99.90
6740;DHT22;3407;49.882;10.920;2023-02-27T08:43:33;10.80;99.90
6740;DHT22;3407;49.882;10.920;2023-02-27T08:48:29;9.40;99.90
6740;DHT22;3407;49.882;10.920;2023-02-27T08:53:24;8.00;99.90
6740;DHT22;3407;49.882;10.920;2023-02-27T08:58:20;9.40;99.90
6740;DHT22;3407;49.882;10.920;2023-02-27T09:03:15;9.10;99.90
6740;DHT22;3407;49.882;10.920;2023-02-27T09:08:11;9.00;99.90
6740;DHT22;3407;49.882;10.920;2023-02-27T09:13:06;9.20;99.90
6740;DHT22;3407;49.882;10.920;2023-02-27T09:18:03;9.20;99.90
6740;DHT22;3407;49.882;10.920;2023-02-27T09:23:02;9.30;99.90
6740;DHT22;3407;49.882;10.920;2023-02-27T09:27:58;8.90;99.90
6740;DHT22;3407;49.882;10.920;2023-02-27T09:32:53;9.40;99.90
6740;DHT22;3407;49.882;10.920;2023-02-27T09:37:49;8.30;99.90
6740;DHT22;3407;49.882;10.920;2023-02-27T09:42:45;8.10;99.90
6740;DHT22;3407;49.882;10.920;2023-02-27T09:47:48;7.40;99.90
6740;DHT22;3407;49.882;10.920;2023-02-27T09:52:48;7.30;99.90
6740;DHT22;3407;49.882;10.920;2023-02-27T10:08:29;8.40;99.90
6740;DHT22;3407;49.882;10.920;2023-02-27T10:18:55;9.30;99.90
6740;DHT22;3407;49.882;10.920;2023-02-27T10:29:31;9.50;99.90
6740;DHT22;3407;49.882;10.920;2023-02-27T10:34:29;9.10;99.90
6740;DHT22;3407;49.882;10.920;2023-02-27T10:39:25;9.50;99.90
6740;DHT22;3407;49.882;10.920;2023-02-27T10:44:22;9.80;99.90
6740;DHT22;3407;49.882;10.920;2023-02-27T10:49:20;8.70;99.90
6740;DHT22;3407;49.882;10.920;2023-02-27T10:54:23;9.20;99.90
6740;DHT22;3407;49.882;10.920;2023-02-27T11:04:32;9.20;99.90
6740;DHT22;3407;49.882;10.920;2023-02-27T11:09:32;9.30;99.90
6740;DHT22;3407;49.882;10.920;2023-02-27T11:14:32;9.60;99.90
6740;DHT22;3407;49.882;10.920;2023-02-27T11:19:38;8.70;99.90
6740;DHT22;3407;49.882;10.920;2023-02-27T11:24:34;8.50;99.90
6740;DHT22;3407;49.882;10.920;2023-02-27T11:29:29;8.50;99.90
6740;DHT22;3407;49.882;10.920;2023-02-27T11:34:33;8.60;99.90
6740;DHT22;3407;49.882;10.920;2023-02-27T11:39:38;8.30;99.90
6740;DHT22;3407;49.882;10.920;2023-02-27T11:44:50;8.00;99.90
6740;DHT22;3407;49.882;10.920;2023-02-27T11:55:12;6.30;99.90
6740;DHT22;3407;49.882;10.920;2023-02-27T12:00:24;7.20;99.90
6740;DHT22;3407;49.882;10.920;2023-02-27T12:05:43;6.60;99.90
6740;DHT22;3407;49.882;10.920;2023-02-27T12:10:57;6.90;99.90
6740;DHT22;3407;49.882;10.920;2023-02-27T12:16:11;7.70;99.90
6740;DHT22;3407;49.882;10.920;2023-02-27T12:21:20;8.50;99.90
6740;DHT22;3407;49.882;10.920;2023-02-27T12:26:29;8.80;99.90
6740;DHT22;3407;49.882;10.920;2023-02-27T12:36:31;7.50;99.90
6740;DHT22;3407;49.882;10.920;2023-02-27T12:46:48;7.30;99.90
6740;DHT22;3407;49.882;10.920;2023-02-27T12:51:51;6.30;99.90
6740;DHT22;3407;49.882;10.920;2023-02-27T13:02:49;4.80;99.90
6740;DHT22;3407;49.882;10.920;2023-02-27T13:08:02;4.90;99.90
6740;DHT22;3407;49.882;10.920;2023-02-27T13:13:26;5.10;99.90
6740;DHT22;3407;49.882;10.920;2023-02-27T13:23:46;4.70;99.90
6740;DHT22;3407;49.882;10.920;2023-02-27T13:28:44;4.50;99.90
6740;DHT22;3407;49.882;10.920;2023-02-27T13:38:53;4.20;99.90
6740;DHT22;3407;49.882;10.920;2023-02-27T13:43:51;4.40;99.90
6740;DHT22;3407;49.882;10.920;2023-02-27T13:54:19;4.10;99.90
6740;DHT22;3407;49.882;10.920;2023-02-27T13:59:27;4.40;99.90
6740;DHT22;3407;49.882;10.920;2023-02-27T14:04:27;4.50;99.90
6740;DHT22;3407;49.882;10.920;2023-02-27T14:09:24;4.50;99.90
6740;DHT22;3407;49.882;10.920;2023-02-27T14:14:40;4.60;99.90
6740;DHT22;3407;49.882;10.920;2023-02-27T14:19:42;5.40;99.90
6740;DHT22;3407;49.882;10.920;2023-02-27T14:24:44;6.00;99.90
6740;DHT22;3407;49.882;10.920;2023-02-27T14:29:45;6.30;99.90
6740;DHT22;3407;49.882;10.920;2023-02-27T14:34:41;6.40;99.90
6740;DHT22;3407;49.882;10.920;2023-02-27T14:39:37;6.50;99.90
6740;DHT22;3407;49.882;10.920;2023-02-27T14:44:38;6.60;99.90
6740;DHT22;3407;49.882;10.920;2023-02-27T14:49:34;7.30;99.90
6740;DHT22;3407;49.882;10.920;2023-02-27T14:54:30;7.90;99.90
6740;DHT22;3407;49.882;10.920;2023-02-27T14:59:31;8.20;99.90
6740;DHT22;3407;49.882;10.920;2023-02-27T15:04:29;7.90;99.90
6740;DHT22;3407;49.882;10.920;2023-02-27T15:09:39;6.50;99.90
6740;DHT22;3407;49.882;10.920;2023-02-27T15:14:38;6.50;99.90
6740;DHT22;3407;49.882;10.920;2023-02-27T15:19:34;6.10;99.90
6740;DHT22;3407;49.882;10.920;2023-02-27T15:24:33;6.40;99.90
6740;DHT22;3407;49.882;10.920;2023-02-27T15:29:44;6.30;99.90
6740;DHT22;3407;49.882;10.920;2023-02-27T15:34:42;6.10;99.90
6740;DHT22;3407;49.882;10.920;2023-02-27T15:39:39;5.70;99.90
6740;DHT22;3407;49.882;10.920;2023-02-27T15:44:39;5.00;99.90
6740;DHT22;3407;49.882;10.920;2023-02-27T15:49:36;4.40;99.90
6740;DHT22;3407;49.882;10.920;2023-02-27T15:54:33;4.50;99.90
6740;DHT22;3407;49.882;10.920;2023-02-27T15:59:32;4.60;99.90
6740;DHT22;3407;49.882;10.920;2023-02-27T16:04:30;4.00;99.90
6740;DHT22;3407;49.882;10.920;2023-02-27T16:09:30;3.50;99.90
6740;DHT22;3407;49.882;10.920;2023-02-27T16:14:43;3.10;99.90
6740;DHT22;3407;49.882;10.920;2023-02-27T16:19:39;2.70;99.90
6740;DHT22;3407;49.882;10.920;2023-02-27T16:24:34;2.30;99.90
6740;DHT22;3407;49.882;10.920;2023-02-27T16:29:32;2.10;1.00
6740;DHT22;3407;49.882;10.920;2023-02-27T16:34:34;1.90;1.00
6740;DHT22;3407;49.882;10.920;2023-02-27T16:39:31;1.80;1.00
6740;DHT22;3407;49.882;10.920;2023-02-27T16:44:27;1.70;1.00
6740;DHT22;3407;49.882;10.920;2023-02-27T16:49:26;1.60;1.00
6740;DHT22;3407;49.882;10.920;2023-02-27T16:54:22;1.50;1.00
6740;DHT22;3407;49.882;10.920;2023-02-27T16:59:33;1.40;1.00
6740;DHT22;3407;49.882;10.920;2023-02-27T17:04:29;1.30;1.00
6740;DHT22;3407;49.882;10.920;2023-02-27T17:09:24;1.20;1.00
6740;DHT22;3407;49.882;10.920;2023-02-27T17:14:23;1.10;1.00
6740;DHT22;3407;49.882;10.920;2023-02-27T17:19:18;1.00;1.00
6740;DHT22;3407;49.882;10.920;2023-02-27T17:24:16;1.00;1.00
6740;DHT22;3407;49.882;10.920;2023-02-27T17:29:12;0.90;14.70
6740;DHT22;3407;49.882;10.920;2023-02-27T17:34:09;0.90;21.90
6740;DHT22;3407;49.882;10.920;2023-02-27T17:39:05;0.80;33.50
6740;DHT22;3407;49.882;10.920;2023-02-27T17:44:00;0.80;71.60
6740;DHT22;3407;49.882;10.920;2023-02-27T17:48:56;0.70;77.90
6740;DHT22;3407;49.882;10.920;2023-02-27T17:53:55;0.70;96.10
6740;DHT22;3407;49.882;10.920;2023-02-27T17:58:51;0.60;99.90
6740;DHT22;3407;49.882;10.920;2023-02-27T18:03:47;0.60;99.90
6740;DHT22;3407;49.882;10.920;2023-02-27T18:08:44;0.50;99.90
6740;DHT22;3407;49.882;10.920;2023-02-27T18:13:40;0.50;99.90
6740;DHT22;3407;49.882;10.920;2023-02-27T18:18:37;0.40;99.90
6740;DHT22;3407;49.882;10.920;2023-02-27T18:23:33;0.30;99.90
6740;DHT22;3407;49.882;10.920;2023-02-27T18:28:28;0.30;99.90
6740;DHT22;3407;49.882;10.920;2023-02-27T18:33:24;0.30;99.90
6740;DHT22;3407;49.882;10.920;2023-02-27T18:38:20;0.30;99.90
6740;DHT22;3407;49.882;10.920;2023-02-27T18:43:15;0.30;99.90
6740;DHT22;3407;49.882;10.920;2023-02-27T18:48:11;0.40;99.90
6740;DHT22;3407;49.882;10.920;2023-02-27T18:53:06;0.50;99.90
6740;DHT22;3407;49.882;10.920;2023-02-27T18:58:02;0.70;99.90
6740;DHT22;3407;49.882;10.920;2023-02-27T19:02:57;0.70;99.90
6740;DHT22;3407;49.882;10.920;2023-02-27T19:07:53;0.80;99.90
6740;DHT22;3407;49.882;10.920;2023-02-27T19:12:49;0.80;99.90
6740;DHT22;3407;49.882;10.920;2023-02-27T19:17:45;0.90;99.90
6740;DHT22;3407;49.882;10.920;2023-02-27T19:22:41;0.90;99.90
6740;DHT22;3407;49.882;10.920;2023-02-27T19:27:37;0.90;99.90
6740;DHT22;3407;49.882;10.920;2023-02-27T19:32:34;0.90;99.90
6740;DHT22;3407;49.882;10.920;2023-02-27T19:37:29;0.90;99.90
6740;DHT22;3407;49.882;10.920;2023-02-27T19:42:25;1.00;99.90
6740;DHT22;3407;49.882;10.920;2023-02-27T19:47:20;0.90;99.90
6740;DHT22;3407;49.882;10.920;2023-02-27T19:52:16;0.90;99.90
6740;DHT22;3407;49.882;10.920;2023-02-27T19:57:11;0.90;99.90
6740;DHT22;3407;49.882;10.920;2023-02-27T20:02:10;0.90;99.90
6740;DHT22;3407;49.882;10.920;2023-02-27T20:07:05;0.90;99.90
6740;DHT22;3407;49.882;10.920;2023-02-27T20:12:01;0.80;99.90
6740;DHT22;3407;49.882;10.920;2023-02-27T20:16:57;0.80;99.90
6740;DHT22;3407;49.882;10.920;2023-02-27T20:21:52;0.80;1.00
6740;DHT22;3407;49.882;10.920;2023-02-27T20:26:50;0.80;99.90
6740;DHT22;3407;49.882;10.920;2023-02-27T20:31:49;0.80;99.90
6740;DHT22;3407;49.882;10.920;2023-02-27T20:36:46;0.70;1.00
6740;DHT22;3407;49.882;10.920;2023-02-27T20:41:43;0.70;1.00
6740;DHT22;3407;49.882;10.920;2023-02-27T20:46:40;0.60;1.00
6740;DHT22;3407;49.882;10.920;2023-02-27T20:51:38;0.50;1.00
6740;DHT22;3407;49.882;10.920;2023-02-27T20:56:36;0.40;1.00
6740;DHT22;3407;49.882;10.920;2023-02-27T21:01:34;0.40;1.00
6740;DHT22;3407;49.882;10.920;2023-02-27T21:06:29;0.30;2.60
6740;DHT22;3407;49.882;10.920;2023-02-27T21:11:28;0.20;99.90
6740;DHT22;3407;49.882;10.920;2023-02-27T21:16:24;0.00;99.90
6740;DHT22;3407;49.882;10.920;2023-02-27T21:21:22;-0.10;99.90
6740;DHT22;3407;49.882;10.920;2023-02-27T21:26:27;-0.10;99.90
6740;DHT22;3407;49.882;10.920;2023-02-27T21:31:25;-0.20;1.00
6740;DHT22;3407;49.882;10.920;2023-02-27T21:36:29;-0.30;1.00
6740;DHT22;3407;49.882;10.920;2023-02-27T21:41:25;-0.30;1.00
6740;DHT22;3407;49.882;10.920;2023-02-27T21:46:21;-0.40;1.00
6740;DHT22;3407;49.882;10.920;2023-02-27T21:51:16;-0.50;1.00
6740;DHT22;3407;49.882;10.920;2023-02-27T21:56:12;-0.50;99.90
6740;DHT22;3407;49.882;10.920;2023-02-27T22:01:17;-0.60;99.90
6740;DHT22;3407;49.882;10.920;2023-02-27T22:06:14;-0.60;99.90
6740;DHT22;3407;49.882;10.920;2023-02-27T22:11:10;-0.60;99.90
6740;DHT22;3407;49.882;10.920;2023-02-27T22:16:07;-0.70;99.90
6740;DHT22;3407;49.882;10.920;2023-02-27T22:21:10;-0.70;99.90
6740;DHT22;3407;49.882;10.920;2023-02-27T22:26:08;-0.70;99.90
6740;DHT22;3407;49.882;10.920;2023-02-27T22:36:13;-0.80;1.00
6740;DHT22;3407;49.882;10.920;2023-02-27T22:41:12;-0.90;1.00
6740;DHT22;3407;49.882;10.920;2023-02-27T22:46:09;-0.90;1.00
6740;DHT22;3407;49.882;10.920;2023-02-27T22:51:08;-0.90;1.00
6740;DHT22;3407;49.882;10.920;2023-02-27T22:56:08;-1.00;99.90
6740;DHT22;3407;49.882;10.920;2023-02-27T23:01:21;-1.00;99.90
6740;DHT22;3407;49.882;10.920;2023-02-27T23:06:19;-1.00;1.00
6740;DHT22;3407;49.882;10.920;2023-02-27T23:11:16;-1.00;1.00
6740;DHT22;3407;49.882;10.920;2023-02-27T23:16:13;-1.10;99.90
6740;DHT22;3407;49.882;10.920;2023-02-27T23:21:09;-1.10;99.90
6740;DHT22;3407;49.882;10.920;2023-02-27T23:26:04;-1.10;1.00
6740;DHT22;3407;49.882;10.920;2023-02-27T23:31:00;-1.20;1.00
6740;DHT22;3407;49.882;10.920;2023-02-27T23:35:56;-1.20;1.00
6740;DHT22;3407;49.882;10.920;2023-02-27T23:40:52;-1.20;34.20
6740;DHT22;3407;49.882;10.920;2023-02-27T23:45:48;-1.20;31.40
6740;DHT22;3407;49.882;10.920;2023-02-27T23:50:43;-1.30;86.30
6740;DHT22;3407;49.882;10.920;2023-02-27T23:55:40;-1.40;99.90
